Time;durP1;ratioP1;P1;durP2;ratioP2;P2;SDS_P1;SDS_P2;PMS_P1;PMS_P2;Temp;Humidity;BMP_temperature;BMP_pressure;BME280_temperature;BME280_humidity;BME280_pressure;Samples;Min_cycle;Max_cycle;Signal;HPM_P1;HPM_P2
2021/01/07 00:04:07;;;;;;;18.17;9.27;;;;;;;0.30;100.00;97792.56;3716760;80;44475;-17
2021/01/07 00:09:14;;;;;;;19.83;9.73;;;;;;;0.18;100.00;97790.80;3716792;80;42763;-17
2021/01/07 00:14:20;;;;;;;20.23;10.43;;;;;;;0.25;100.00;97786.73;3716843;80;43694;-17
2021/01/07 00:19:26;;;;;;;19.37;9.50;;;;;;;0.28;100.00;97786.52;3716758;78;43374;-17
2021/01/07 00:24:32;;;;;;;19.33;10.00;;;;;;;0.32;100.00;97790.65;3716896;80;43305;-17
2021/01/07 00:29:38;;;;;;;19.50;10.03;;;;;;;0.36;100.00;97784.64;3714631;78;43986;-17
2021/01/07 00:34:43;;;;;;;21.80;10.27;;;;;;;0.39;100.00;97789.23;3725958;79;44086;-17
2021/01/07 00:39:49;;;;;;;18.03;9.53;;;;;;;0.24;100.00;97786.37;3732652;79;44542;-17
2021/01/07 00:44:55;;;;;;;20.07;10.40;;;;;;;0.18;100.00;97791.64;3716831;80;43037;-17
2021/01/07 00:50:01;;;;;;;21.80;10.70;;;;;;;0.28;100.00;97792.69;3717026;80;44152;-17
2021/01/07 00:55:08;;;;;;;21.80;10.27;;;;;;;0.18;100.00;97792.96;3717201;80;43227;-17
2021/01/07 01:00:19;;;;;;;19.53;9.93;;;;;;;0.17;100.00;97791.30;3717039;80;43655;-17
2021/01/07 01:05:24;;;;;;;20.30;9.33;;;;;;;0.18;100.00;97786.83;3550909;81;43956;-17
2021/01/07 01:10:30;;;;;;;20.80;9.73;;;;;;;0.16;100.00;97788.28;3672366;80;44234;-17
2021/01/07 01:15:36;;;;;;;20.73;11.00;;;;;;;0.20;100.00;97792.38;3669458;81;43405;-17
2021/01/07 01:20:42;;;;;;;21.37;10.73;;;;;;;0.21;100.00;97794.07;3669586;81;43680;-17
2021/01/07 01:25:48;;;;;;;21.37;10.77;;;;;;;0.27;100.00;97800.27;3669214;81;44412;-17
2021/01/07 01:30:53;;;;;;;20.57;10.57;;;;;;;0.18;100.00;97787.66;3669176;81;43689;-17
2021/01/07 01:35:59;;;;;;;19.20;9.53;;;;;;;0.08;100.00;97782.20;3667597;81;43979;-17
2021/01/07 01:41:06;;;;;;;20.27;9.80;;;;;;;0.06;100.00;97781.96;3668655;80;44075;-17
2021/01/07 01:46:11;;;;;;;19.07;10.27;;;;;;;0.10;100.00;97786.92;3669245;81;43692;-17
2021/01/07 01:51:17;;;;;;;21.97;10.13;;;;;;;0.08;100.00;97787.50;3669329;81;44907;-17
2021/01/07 01:56:24;;;;;;;19.67;10.07;;;;;;;0.03;100.00;97784.33;3669247;79;43300;-17
2021/01/07 02:01:30;;;;;;;22.87;10.30;;;;;;;-0.05;100.00;97798.12;3669372;81;43400;-17
2021/01/07 02:06:38;;;;;;;21.03;9.63;;;;;;;-0.07;100.00;97797.87;3666609;79;42849;-17
2021/01/07 02:11:44;;;;;;;22.57;10.83;;;;;;;-0.12;100.00;97801.34;3669059;81;44455;-17
2021/01/07 02:16:50;;;;;;;21.93;10.80;;;;;;;-0.09;100.00;97790.05;3668735;79;43333;-17
2021/01/07 02:21:56;;;;;;;21.07;10.03;;;;;;;-0.07;100.00;97789.92;3668249;79;44042;-18
2021/01/07 02:27:05;;;;;;;18.13;8.93;;;;;;;-0.12;100.00;97786.28;3668577;79;43723;-18
2021/01/07 02:32:11;;;;;;;22.27;10.30;;;;;;;-0.17;100.00;97799.86;3666279;81;43305;-17
2021/01/07 02:37:18;;;;;;;21.00;10.03;;;;;;;-0.16;100.00;97792.74;3664238;81;44049;-17
2021/01/07 02:42:26;;;;;;;21.40;10.33;;;;;;;-0.19;100.00;97777.93;3669046;81;43709;-17
2021/01/07 02:47:32;;;;;;;20.17;10.27;;;;;;;-0.14;100.00;97777.60;3669078;81;43703;-17
2021/01/07 02:52:38;;;;;;;19.57;9.80;;;;;;;-0.19;100.00;97765.19;3669199;81;44002;-17
2021/01/07 02:57:43;;;;;;;24.37;10.60;;;;;;;-0.25;100.00;97755.02;3668891;81;43707;-17
2021/01/07 03:02:49;;;;;;;22.73;9.97;;;;;;;-0.23;100.00;97762.38;3669020;81;43159;-17
2021/01/07 03:07:55;;;;;;;20.40;9.60;;;;;;;-0.15;100.00;97758.70;3677747;80;44834;-17
2021/01/07 03:13:00;;;;;;;20.43;9.77;;;;;;;-0.26;100.00;97754.65;3715022;80;43645;-17
2021/01/07 03:18:07;;;;;;;20.77;9.63;;;;;;;-0.29;100.00;97752.25;3716971;78;43294;-17
2021/01/07 03:23:14;;;;;;;21.67;9.63;;;;;;;-0.22;100.00;97758.78;3715432;79;43378;-17
2021/01/07 03:28:20;;;;;;;20.40;9.40;;;;;;;-0.16;100.00;97760.52;3715317;78;44493;-17
2021/01/07 03:33:26;;;;;;;19.10;9.67;;;;;;;-0.23;100.00;97758.41;3716635;80;43696;-17
2021/01/07 03:38:31;;;;;;;19.43;9.43;;;;;;;-0.23;100.00;97763.21;3716181;78;44531;-17
2021/01/07 03:43:37;;;;;;;18.77;9.37;;;;;;;-0.27;100.00;97764.41;3714793;80;44078;-17
2021/01/07 03:48:44;;;;;;;16.40;8.37;;;;;;;-0.22;100.00;97768.87;3716486;80;43680;-17
2021/01/07 03:53:50;;;;;;;17.37;8.70;;;;;;;-0.37;100.00;97772.14;3715409;80;42929;-17
2021/01/07 03:58:56;;;;;;;16.63;8.20;;;;;;;-0.40;100.00;97761.77;3715337;78;44130;-17
2021/01/07 04:04:02;;;;;;;17.97;8.60;;;;;;;-0.41;100.00;97763.20;3715531;79;43669;-20
2021/01/07 04:09:08;;;;;;;16.53;8.80;;;;;;;-0.23;100.00;97765.03;3700422;78;43177;-21
2021/01/07 04:14:14;;;;;;;16.90;8.70;;;;;;;-0.24;100.00;97758.04;3628326;81;42934;-20
2021/01/07 04:19:19;;;;;;;18.23;8.73;;;;;;;-0.29;100.00;97750.92;3688776;80;44063;-21
2021/01/07 04:24:26;;;;;;;19.30;9.50;;;;;;;-0.24;100.00;97748.77;3706889;80;43730;-20
2021/01/07 04:29:31;;;;;;;16.30;7.87;;;;;;;-0.32;100.00;97759.91;3604815;81;44115;-20
2021/01/07 04:34:37;;;;;;;16.60;11.03;;;;;;;-0.38;100.00;97750.60;3583734;82;42934;-19
2021/01/07 04:39:43;;;;;;;15.13;8.70;;;;;;;-0.28;100.00;97753.45;3599724;82;43491;-19
2021/01/07 04:44:51;;;;;;;17.30;8.27;;;;;;;-0.40;100.00;97743.23;3599689;82;43567;-19
2021/01/07 04:49:57;;;;;;;18.40;8.87;;;;;;;-0.44;100.00;97750.19;3602562;81;43132;-19
2021/01/07 04:55:04;;;;;;;17.23;7.97;;;;;;;-0.37;100.00;97748.81;3608218;82;44775;-19
2021/01/07 05:00:13;;;;;;;16.60;8.60;;;;;;;-0.54;100.00;97757.95;3664523;80;44030;-19
2021/01/07 05:05:20;;;;;;;16.20;8.97;;;;;;;-0.51;100.00;97753.74;3666251;81;44005;-19
2021/01/07 05:10:26;;;;;;;15.50;8.00;;;;;;;-0.58;100.00;97753.33;3611948;81;43428;-20
2021/01/07 05:15:39;;;;;;;17.30;8.77;;;;;;;-0.54;100.00;97758.78;3669981;81;44015;-20
2021/01/07 05:20:47;;;;;;;15.87;8.87;;;;;;;-0.53;100.00;97759.16;3668118;81;44014;-20
2021/01/07 05:25:58;;;;;;;15.23;8.10;;;;;;;-0.53;100.00;97754.35;3669910;81;43688;-18
2021/01/07 05:31:04;;;;;;;16.63;9.10;;;;;;;-0.51;100.00;97753.74;3669908;81;44137;-18
2021/01/07 05:36:36;;;;;;;18.53;8.67;;;;;;;-0.56;100.00;97756.71;3669840;81;43416;-18
2021/01/07 05:41:42;;;;;;;16.13;7.70;;;;;;;-0.56;100.00;97756.71;3667224;81;44042;-18
2021/01/07 05:46:48;;;;;;;17.13;8.27;;;;;;;-0.57;100.00;97754.19;3669502;81;42886;-18
2021/01/07 05:51:54;;;;;;;17.23;8.87;;;;;;;-0.57;100.00;97763.45;3668151;81;44013;-18
2021/01/07 05:57:03;;;;;;;20.50;9.57;;;;;;;-0.62;100.00;97764.60;3669827;79;43990;-18
2021/01/07 06:02:12;;;;;;;15.83;8.13;;;;;;;-0.59;100.00;97766.67;3670119;81;43365;-18
2021/01/07 06:07:18;;;;;;;18.93;8.73;;;;;;;-0.66;100.00;97771.08;3669915;79;43492;-18
2021/01/07 06:12:25;;;;;;;15.97;8.40;;;;;;;-0.63;100.00;97765.55;3681757;80;44024;-18
2021/01/07 06:17:31;;;;;;;17.93;8.50;;;;;;;-0.64;100.00;97771.80;3684689;78;43290;-19
2021/01/07 06:22:41;;;;;;;19.90;8.73;;;;;;;-0.64;100.00;97774.93;3716465;78;42720;-19
2021/01/07 06:27:47;;;;;;;16.17;8.10;;;;;;;-0.64;100.00;97782.37;3717120;80;44023;-18
2021/01/07 06:33:07;;;;;;;17.40;9.03;;;;;;;-0.64;100.00;97784.19;3717621;80;44140;-20
2021/01/07 06:38:27;;;;;;;15.90;7.93;;;;;;;-0.67;100.00;97790.55;3717320;78;44013;-18
2021/01/07 06:43:33;;;;;;;16.53;7.73;;;;;;;-0.62;100.00;97788.41;3717204;79;44099;-18
2021/01/07 06:48:41;;;;;;;11.87;6.33;;;;;;;-0.64;100.00;97786.84;3717200;78;44069;-18
2021/01/07 06:53:49;;;;;;;11.37;6.07;;;;;;;-0.67;100.00;97797.63;3717252;79;44139;-18
2021/01/07 06:58:55;;;;;;;14.67;7.33;;;;;;;-0.68;100.00;97796.79;3716264;80;43423;-18
2021/01/07 07:04:04;;;;;;;11.30;6.57;;;;;;;-0.67;100.00;97807.74;3717272;80;44088;-18
2021/01/07 07:09:20;;;;;;;12.67;6.37;;;;;;;-0.65;100.00;97808.95;3717524;80;43396;-17
2021/01/07 07:14:27;;;;;;;15.83;6.87;;;;;;;-0.68;100.00;97810.47;3622162;81;44086;-17
2021/01/07 07:19:35;;;;;;;13.00;6.60;;;;;;;-0.67;100.00;97819.65;3653199;80;45123;-17
2021/01/07 07:24:42;;;;;;;13.43;6.87;;;;;;;-0.69;100.00;97821.55;3660443;81;43461;-18
2021/01/07 07:29:49;;;;;;;11.87;6.70;;;;;;;-0.58;100.00;97827.89;3659494;80;44071;-17
2021/01/07 07:34:57;;;;;;;12.27;6.30;;;;;;;-0.59;100.00;97837.64;3660127;81;43977;-17
2021/01/07 07:40:05;;;;;;;11.10;6.60;;;;;;;-0.53;100.00;97836.37;3660219;81;44433;-18
2021/01/07 07:45:15;;;;;;;12.03;6.43;;;;;;;-0.52;100.00;97847.30;3659957;81;43718;-18
2021/01/07 07:50:24;;;;;;;13.30;6.77;;;;;;;-0.52;100.00;97851.27;3659700;81;42950;-17
2021/01/07 07:55:34;;;;;;;12.83;7.30;;;;;;;-0.49;100.00;97850.61;3604172;81;43991;-18
2021/01/07 08:00:41;;;;;;;13.50;6.87;;;;;;;-0.50;100.00;97851.55;3604052;82;43473;-18
2021/01/07 08:05:48;;;;;;;12.43;6.77;;;;;;;-0.48;100.00;97854.09;3605493;81;43042;-18
2021/01/07 08:10:55;;;;;;;13.10;7.43;;;;;;;-0.53;100.00;97857.55;3669051;80;43469;-18
2021/01/07 08:16:01;;;;;;;14.03;6.93;;;;;;;-0.48;100.00;97854.09;3713080;78;44150;-18
2021/01/07 08:21:11;;;;;;;11.80;6.70;;;;;;;-0.51;100.00;97852.51;3713086;79;43730;-18
2021/01/07 08:26:25;;;;;;;13.73;6.77;;;;;;;-0.49;100.00;97851.06;3712981;78;43730;-18
2021/01/07 08:31:34;;;;;;;11.87;6.63;;;;;;;-0.43;100.00;97855.09;3711370;78;44158;-18
2021/01/07 08:36:41;;;;;;;11.33;6.13;;;;;;;-0.39;100.00;97853.44;3714191;80;43718;-18
2021/01/07 08:41:47;;;;;;;12.97;7.03;;;;;;;-0.40;100.00;97864.98;3712043;80;43338;-18
2021/01/07 08:46:53;;;;;;;12.60;6.47;;;;;;;-0.28;100.00;97848.73;3712581;78;43957;-19
2021/01/07 08:52:01;;;;;;;11.87;6.60;;;;;;;-0.36;100.00;97855.88;3713072;78;43686;-19
2021/01/07 08:57:14;;;;;;;14.40;7.07;;;;;;;-0.30;100.00;97855.10;3713186;78;43468;-17
2021/01/07 09:02:20;;;;;;;12.07;6.20;;;;;;;-0.30;100.00;97858.58;3713227;80;43998;-18
2021/01/07 09:07:26;;;;;;;12.57;6.10;;;;;;;-0.25;100.00;97862.23;3711998;80;44059;-19
2021/01/07 09:12:32;;;;;;;13.33;6.50;;;;;;;-0.29;100.00;97861.60;3681282;80;44068;-18
2021/01/07 09:17:43;;;;;;;12.80;6.40;;;;;;;-0.24;100.00;97869.22;3635348;79;43060;-19
2021/01/07 09:22:50;;;;;;;13.13;6.70;;;;;;;-0.28;100.00;97861.11;3665454;79;44158;-19
2021/01/07 09:27:57;;;;;;;12.30;5.77;;;;;;;-0.14;100.00;97865.46;3665667;79;43706;-19
2021/01/07 09:33:03;;;;;;;11.93;6.73;;;;;;;-0.17;100.00;97855.91;3665639;81;43714;-19
2021/01/07 09:38:09;;;;;;;12.17;6.27;;;;;;;-0.10;100.00;97856.33;3663583;81;43472;-19
2021/01/07 09:43:15;;;;;;;12.50;6.33;;;;;;;-0.09;100.00;97858.02;3665281;81;44559;-18
2021/01/07 09:48:21;;;;;;;11.00;6.07;;;;;;;-0.01;100.00;97855.70;3665493;81;44555;-18
2021/01/07 09:53:28;;;;;;;11.17;6.23;;;;;;;0.01;100.00;97856.91;3638560;81;44841;-18
2021/01/07 09:58:34;;;;;;;11.70;6.77;;;;;;;0.01;100.00;97858.23;3665479;79;44153;-18
2021/01/07 10:03:41;;;;;;;10.50;5.90;;;;;;;-0.04;100.00;97855.42;3665791;81;43105;-19
2021/01/07 10:08:47;;;;;;;13.40;6.67;;;;;;;-0.05;100.00;97852.41;3664471;79;43330;-18
2021/01/07 10:13:54;;;;;;;10.13;6.07;;;;;;;0.03;100.00;97846.56;3665384;80;43467;-20
2021/01/07 10:19:01;;;;;;;12.80;6.60;;;;;;;0.05;100.00;97851.77;3665588;79;44040;-18
2021/01/07 10:24:07;;;;;;;13.27;6.53;;;;;;;-0.13;100.00;97844.66;3665753;79;42937;-18
2021/01/07 10:29:15;;;;;;;12.50;6.47;;;;;;;-0.16;100.00;97841.72;3662770;79;44026;-18
2021/01/07 10:34:21;;;;;;;12.27;6.57;;;;;;;-0.09;100.00;97848.30;3664411;79;44026;-18
2021/01/07 10:39:30;;;;;;;12.13;6.67;;;;;;;-0.15;100.00;97840.77;3660032;79;43770;-18
2021/01/07 10:44:37;;;;;;;13.80;7.30;;;;;;;-0.16;100.00;97836.42;3664918;81;44651;-19
2021/01/07 10:49:45;;;;;;;13.33;7.20;;;;;;;-0.09;100.00;97835.06;3665164;81;44137;-20
2021/01/07 10:55:00;;;;;;;13.90;7.27;;;;;;;-0.07;100.00;97830.51;3665463;81;43420;-19
2021/01/07 11:00:09;;;;;;;13.60;7.37;;;;;;;-0.05;100.00;97835.68;3662653;81;44017;-20
2021/01/07 11:05:20;;;;;;;12.57;6.63;;;;;;;0.03;100.00;97836.47;3658650;79;43982;-18
2021/01/07 11:10:27;;;;;;;14.10;7.50;;;;;;;0.05;100.00;97819.50;3606540;82;43985;-19
2021/01/07 11:15:36;;;;;;;12.73;7.30;;;;;;;0.05;100.00;97816.02;3657966;79;43399;-18
2021/01/07 11:20:46;;;;;;;14.03;7.30;;;;;;;0.08;100.00;97825.05;3665551;81;43384;-19
2021/01/07 11:25:54;;;;;;;12.67;7.27;;;;;;;0.15;100.00;97817.88;3672763;79;44021;-18
2021/01/07 11:31:00;;;;;;;11.57;7.03;;;;;;;0.12;100.00;97809.31;3725036;79;43726;-19
2021/01/07 11:36:10;;;;;;;11.33;6.57;;;;;;;0.21;100.00;97798.05;3714738;79;43673;-18
2021/01/07 11:41:23;;;;;;;12.33;6.70;;;;;;;0.15;100.00;97797.18;3665421;81;43937;-19
2021/01/07 11:46:33;;;;;;;10.43;6.43;;;;;;;0.13;100.00;97795.11;3663031;81;44534;-19
2021/01/07 11:51:38;;;;;;;12.33;6.57;;;;;;;0.14;100.00;97787.54;3665474;81;43381;-19
2021/01/07 11:56:48;;;;;;;13.13;6.43;;;;;;;0.14;100.00;97784.89;3665249;79;44810;-18
2021/01/07 12:01:56;;;;;;;13.63;6.57;;;;;;;0.14;100.00;97782.24;3665226;79;43681;-18
2021/01/07 12:07:04;;;;;;;12.53;6.27;;;;;;;0.19;100.00;97784.06;3665198;79;43688;-18
2021/01/07 12:12:15;;;;;;;11.40;6.00;;;;;;;0.15;100.00;97778.14;3665355;81;43293;-18
2021/01/07 12:17:20;;;;;;;10.40;5.80;;;;;;;0.15;100.00;97769.37;3676283;78;43637;-18
2021/01/07 12:22:27;;;;;;;10.57;5.90;;;;;;;0.21;100.00;97770.23;3713124;80;43377;-19
2021/01/07 12:27:38;;;;;;;13.70;7.03;;;;;;;0.28;100.00;97760.89;3712454;79;43374;-19
2021/01/07 12:32:48;;;;;;;10.87;6.03;;;;;;;0.21;100.00;97759.63;3712279;80;43493;-18
2021/01/07 12:38:00;;;;;;;11.27;5.83;;;;;;;0.19;100.00;97750.95;3709597;78;43689;-18
2021/01/07 12:43:07;;;;;;;14.13;6.37;;;;;;;0.21;100.00;97742.91;3712908;80;44144;-18
2021/01/07 12:48:14;;;;;;;9.77;5.53;;;;;;;0.21;100.00;97742.41;3711510;78;43406;-18
2021/01/07 12:53:21;;;;;;;9.70;5.23;;;;;;;0.24;100.00;97745.31;3710138;79;43074;-18
2021/01/07 12:58:28;;;;;;;11.37;6.20;;;;;;;0.34;100.00;97747.67;3712720;80;43387;-18
2021/01/07 13:03:38;;;;;;;11.70;6.27;;;;;;;0.35;100.00;97740.55;3712510;80;43895;-18
2021/01/07 13:08:47;;;;;;;11.73;6.40;;;;;;;0.26;100.00;97736.31;3693171;78;43737;-18
2021/01/07 13:13:54;;;;;;;11.73;6.17;;;;;;;0.30;100.00;97735.11;3710855;80;44481;-18
2021/01/07 13:19:00;;;;;;;12.73;6.33;;;;;;;0.32;100.00;97742.09;3700230;80;43979;-18
2021/01/07 13:24:09;;;;;;;11.40;6.57;;;;;;;0.26;100.00;97736.31;3698659;80;44070;-19
2021/01/07 13:29:18;;;;;;;10.77;6.00;;;;;;;0.29;100.00;97740.03;3700182;80;44452;-19
2021/01/07 13:34:24;;;;;;;13.03;6.50;;;;;;;0.26;100.00;97740.28;3700173;80;43321;-18
2021/01/07 13:39:31;;;;;;;11.27;5.67;;;;;;;0.27;100.00;97740.66;3700253;80;43346;-19
2021/01/07 13:44:39;;;;;;;13.10;6.43;;;;;;;0.27;100.00;97745.95;3699910;80;43680;-18
2021/01/07 13:49:48;;;;;;;10.43;6.03;;;;;;;0.32;100.00;97750.05;3700634;80;44388;-19
2021/01/07 13:54:56;;;;;;;12.53;6.73;;;;;;;0.34;100.00;97753.44;3699757;80;44054;-19
2021/01/07 14:00:03;;;;;;;11.63;6.63;;;;;;;0.39;100.00;97754.78;3700214;80;43464;-18
2021/01/07 14:05:14;;;;;;;13.17;6.30;;;;;;;0.39;100.00;97751.30;3701061;80;26920;-19
2021/01/07 14:10:24;;;;;;;12.80;6.23;;;;;;;0.33;100.00;97759.69;3700673;80;43487;-18
2021/01/07 14:15:30;;;;;;;10.63;5.67;;;;;;;0.28;100.00;97760.89;3705036;78;44073;-18
2021/01/07 14:20:36;;;;;;;12.33;6.33;;;;;;;0.28;100.00;97758.70;3713185;79;43341;-18
2021/01/07 14:25:43;;;;;;;11.60;6.90;;;;;;;0.24;100.00;97757.23;3711402;80;43753;-18
2021/01/07 14:30:49;;;;;;;12.80;6.73;;;;;;;0.19;100.00;97765.52;3712870;80;42930;-18
2021/01/07 14:35:59;;;;;;;11.80;6.63;;;;;;;0.23;100.00;97764.84;3712563;78;43155;-18
2021/01/07 14:41:06;;;;;;;11.60;6.50;;;;;;;0.23;100.00;97771.46;3713193;79;44396;-19
2021/01/07 14:46:12;;;;;;;12.67;6.23;;;;;;;0.21;100.00;97772.05;3713020;78;44458;-18
2021/01/07 14:51:20;;;;;;;12.57;6.83;;;;;;;0.20;100.00;97773.83;3712649;78;43434;-18
2021/01/07 14:56:30;;;;;;;11.87;6.53;;;;;;;0.14;100.00;97765.03;3711240;78;44758;-18
2021/01/07 15:01:39;;;;;;;13.63;7.10;;;;;;;0.14;100.00;97762.38;3712734;79;43746;-18
2021/01/07 15:06:49;;;;;;;13.73;7.40;;;;;;;0.17;100.00;97763.95;3690020;78;42767;-18
2021/01/07 15:12:04;;;;;;;13.23;6.67;;;;;;;0.19;100.00;97764.19;3647652;81;43380;-18
2021/01/07 15:17:20;;;;;;;12.30;6.27;;;;;;;0.17;100.00;97771.89;3701536;78;43484;-18
2021/01/07 15:22:31;;;;;;;12.43;6.33;;;;;;;0.12;100.00;97773.55;3711250;79;44188;-19
2021/01/07 15:27:40;;;;;;;14.03;7.47;;;;;;;0.05;100.00;97776.30;3712505;80;44681;-18
2021/01/07 15:33:05;;;;;;;12.90;7.00;;;;;;;0.10;100.00;97778.11;3705512;80;44545;-18
2021/01/07 15:38:38;;;;;;;13.53;7.07;;;;;;;0.06;100.00;97776.66;3687171;78;44065;-18
2021/01/07 15:44:05;;;;;;;12.13;6.20;;;;;;;0.03;100.00;97771.58;3712155;80;42924;-18
2021/01/07 15:49:24;;;;;;;13.17;7.07;;;;;;;-0.04;100.00;97779.95;3711091;78;44030;-18
2021/01/07 15:54:39;;;;;;;14.13;7.00;;;;;;;-0.06;100.00;97782.34;3667409;80;43450;-18
2021/01/07 15:59:49;;;;;;;15.83;8.23;;;;;;;0.03;100.00;97783.50;3705335;78;43794;-18
2021/01/07 16:05:00;;;;;;;12.63;6.97;;;;;;;0.03;100.00;97776.38;3711081;80;43686;-18
2021/01/07 16:10:08;;;;;;;15.17;7.90;;;;;;;0.03;100.00;97776.88;3715262;80;44686;-18
2021/01/07 16:15:16;;;;;;;14.57;7.77;;;;;;;-0.03;100.00;97773.70;3714513;80;43990;-18
2021/01/07 16:20:23;;;;;;;14.33;7.30;;;;;;;0.08;100.00;97780.02;3716189;80;43435;-18
2021/01/07 16:25:33;;;;;;;14.53;7.60;;;;;;;0.12;100.00;97780.17;3716693;78;44013;-18
2021/01/07 16:30:40;;;;;;;15.40;8.30;;;;;;;0.06;100.00;97775.34;3716863;79;43711;-18
2021/01/07 16:35:46;;;;;;;16.03;8.83;;;;;;;0.08;100.00;97778.70;3713614;78;43393;-18
2021/01/07 16:40:55;;;;;;;15.13;7.90;;;;;;;0.08;100.00;97779.56;3716670;80;43807;-18
2021/01/07 16:46:02;;;;;;;16.60;8.73;;;;;;;0.04;100.00;97784.70;3717181;78;43327;-18
2021/01/07 16:51:10;;;;;;;15.70;8.57;;;;;;;-0.02;100.00;97791.28;3716947;80;44567;-18
2021/01/07 16:56:16;;;;;;;17.33;9.20;;;;;;;-0.11;100.00;97791.95;3716332;78;44120;-18
2021/01/07 17:01:22;;;;;;;16.10;8.53;;;;;;;-0.11;100.00;97785.80;3716215;80;43712;-18
2021/01/07 17:06:29;;;;;;;15.87;8.60;;;;;;;-0.11;100.00;97777.85;3713455;78;44010;-18
2021/01/07 17:11:36;;;;;;;16.13;8.47;;;;;;;-0.12;100.00;97776.19;3726719;79;44007;-18
2021/01/07 17:16:42;;;;;;;15.13;8.40;;;;;;;-0.15;100.00;97775.91;3731466;79;44151;-18
2021/01/07 17:21:48;;;;;;;14.30;8.03;;;;;;;-0.19;100.00;97775.78;3717105;80;44089;-18
2021/01/07 17:26:54;;;;;;;16.70;7.90;;;;;;;-0.21;100.00;97777.68;3717112;80;43349;-18
2021/01/07 17:32:01;;;;;;;12.40;6.57;;;;;;;-0.25;100.00;97765.61;3717276;80;44703;-18
2021/01/07 17:37:08;;;;;;;14.93;8.17;;;;;;;-0.21;100.00;97768.42;3715557;80;43498;-18
2021/01/07 17:42:14;;;;;;;15.03;8.07;;;;;;;-0.24;100.00;97769.95;3716696;80;43714;-18
2021/01/07 17:47:20;;;;;;;16.20;8.40;;;;;;;-0.35;100.00;97776.86;3716611;80;43337;-18
2021/01/07 17:52:28;;;;;;;15.73;7.87;;;;;;;-0.38;100.00;97782.84;3716983;80;44068;-18
2021/01/07 17:57:36;;;;;;;16.67;7.90;;;;;;;-0.45;100.00;97774.50;3716348;78;44126;-18
2021/01/07 18:02:42;;;;;;;15.30;7.97;;;;;;;-0.54;100.00;97779.95;3716864;80;43656;-18
2021/01/07 18:07:48;;;;;;;15.63;8.17;;;;;;;-0.62;100.00;97776.51;3716253;78;43427;-18
2021/01/07 18:12:54;;;;;;;16.07;8.03;;;;;;;-0.70;100.00;97774.88;3715488;79;43280;-18
2021/01/07 18:18:00;;;;;;;16.13;8.63;;;;;;;-0.71;100.00;97777.64;3716723;78;43482;-18
2021/01/07 18:23:07;;;;;;;18.03;8.93;;;;;;;-0.67;100.00;97774.67;3716887;79;43245;-18
2021/01/07 18:28:14;;;;;;;17.50;9.40;;;;;;;-0.64;100.00;97766.50;3716888;78;43678;-19
2021/01/07 18:33:21;;;;;;;19.00;10.23;;;;;;;-0.59;100.00;97771.97;3715078;78;43255;-19
2021/01/07 18:38:28;;;;;;;16.03;9.00;;;;;;;-0.65;100.00;97766.13;3707969;78;43350;-18
2021/01/07 18:43:33;;;;;;;15.73;8.70;;;;;;;-0.56;100.00;97767.30;3713496;78;43678;-18
2021/01/07 18:48:39;;;;;;;18.50;8.47;;;;;;;-0.49;100.00;97765.94;3715485;80;43322;-19
2021/01/07 18:53:46;;;;;;;18.03;9.03;;;;;;;-0.41;100.00;97768.01;3715338;80;43740;-18
2021/01/07 18:58:52;;;;;;;16.23;8.70;;;;;;;-0.33;100.00;97773.63;3714761;78;44477;-19
2021/01/07 19:03:59;;;;;;;15.67;8.97;;;;;;;-0.28;100.00;97769.33;3715291;78;42813;-18
2021/01/07 19:09:06;;;;;;;18.87;8.57;;;;;;;-0.34;100.00;97767.97;3714401;78;43078;-19
2021/01/07 19:14:12;;;;;;;17.33;8.50;;;;;;;-0.36;100.00;97771.69;3713478;79;43306;-18
2021/01/07 19:19:19;;;;;;;17.77;8.10;;;;;;;-0.40;100.00;97767.55;3708003;78;43703;-19
2021/01/07 19:24:25;;;;;;;17.27;8.70;;;;;;;-0.49;100.00;97766.39;3644905;81;43982;-19
2021/01/07 19:29:31;;;;;;;15.43;8.97;;;;;;;-0.44;100.00;97760.31;3702029;79;43351;-19
2021/01/07 19:34:37;;;;;;;16.27;8.53;;;;;;;-0.42;100.00;97768.13;3647499;81;44105;-19
2021/01/07 19:39:43;;;;;;;16.40;8.60;;;;;;;-0.38;100.00;97766.48;3674749;79;43738;-19
2021/01/07 19:44:49;;;;;;;15.87;8.47;;;;;;;-0.45;100.00;97763.05;3687735;80;43675;-20
2021/01/07 19:49:55;;;;;;;16.93;8.70;;;;;;;-0.43;100.00;97764.66;3674372;79;44377;-19
2021/01/07 19:55:01;;;;;;;17.20;8.57;;;;;;;-0.41;100.00;97768.50;3605576;81;43407;-19
2021/01/07 20:00:11;;;;;;;14.90;8.30;;;;;;;-0.31;100.00;97776.16;3601031;82;43350;-19
2021/01/07 20:05:19;;;;;;;18.43;9.37;;;;;;;-0.33;100.00;97768.34;3608341;82;44042;-19
2021/01/07 20:10:28;;;;;;;18.17;8.93;;;;;;;-0.34;100.00;97760.02;3607411;82;44099;-19
2021/01/07 20:15:34;;;;;;;15.73;8.57;;;;;;;-0.37;100.00;97755.43;3669745;81;44470;-19
2021/01/07 20:20:40;;;;;;;16.90;8.93;;;;;;;-0.30;100.00;97763.78;3669044;80;44090;-19
2021/01/07 20:25:46;;;;;;;16.93;8.43;;;;;;;-0.32;100.00;97759.44;3683345;79;42977;-19
2021/01/07 20:30:52;;;;;;;16.27;8.17;;;;;;;-0.34;100.00;97762.67;3669092;79;44381;-18
2021/01/07 20:35:58;;;;;;;16.80;8.73;;;;;;;-0.30;100.00;97761.14;3676459;79;43295;-18
2021/01/07 20:41:05;;;;;;;15.37;7.77;;;;;;;-0.34;100.00;97761.34;3669504;80;44086;-18
2021/01/07 20:46:11;;;;;;;15.53;7.83;;;;;;;-0.42;100.00;97757.55;3665984;79;43309;-18
2021/01/07 20:51:17;;;;;;;15.90;7.83;;;;;;;-0.41;100.00;97752.63;3628458;81;43375;-18
2021/01/07 20:56:23;;;;;;;15.17;7.83;;;;;;;-0.47;100.00;97761.84;3682243;79;44489;-19
2021/01/07 21:01:31;;;;;;;14.73;8.43;;;;;;;-0.47;100.00;97757.38;3642347;81;43391;-19
2021/01/07 21:06:38;;;;;;;16.27;8.30;;;;;;;-0.46;100.00;97754.28;3637862;79;44015;-18
2021/01/07 21:11:43;;;;;;;17.60;8.33;;;;;;;-0.45;100.00;97751.14;3639868;81;44025;-18
2021/01/07 21:16:50;;;;;;;17.20;9.07;;;;;;;-0.47;100.00;97749.94;3639127;79;43706;-18
2021/01/07 21:21:59;;;;;;;15.63;8.40;;;;;;;-0.46;100.00;97747.66;3659672;80;43336;-21
2021/01/07 21:27:08;;;;;;;15.80;8.43;;;;;;;-0.44;100.00;97748.86;3716666;80;44032;-16
2021/01/07 21:32:15;;;;;;;16.33;8.77;;;;;;;-0.35;100.00;97753.50;3716637;80;43635;-17
2021/01/07 21:37:21;;;;;;;17.47;9.50;;;;;;;-0.33;100.00;97749.81;3715976;80;43693;-16
2021/01/07 21:42:27;;;;;;;16.07;8.20;;;;;;;-0.28;100.00;97752.59;3716470;80;44713;-17
2021/01/07 21:47:32;;;;;;;16.60;8.93;;;;;;;-0.26;100.00;97750.22;3716704;78;43681;-16
2021/01/07 21:52:38;;;;;;;14.40;7.53;;;;;;;-0.25;100.00;97748.41;3692028;80;43194;-16
2021/01/07 21:57:44;;;;;;;18.73;9.40;;;;;;;-0.25;100.00;97743.11;3701571;80;43382;-17
2021/01/07 22:02:53;;;;;;;13.93;7.57;;;;;;;-0.25;100.00;97741.33;3716305;80;43423;-16
2021/01/07 22:07:59;;;;;;;16.20;8.20;;;;;;;-0.26;100.00;97738.31;3715409;78;44157;-17
2021/01/07 22:13:05;;;;;;;18.27;8.37;;;;;;;-0.22;100.00;97738.92;3715639;80;44649;-17
2021/01/07 22:18:12;;;;;;;16.17;8.73;;;;;;;-0.22;100.00;97734.95;3716354;78;43714;-17
2021/01/07 22:23:18;;;;;;;16.47;8.60;;;;;;;-0.18;100.00;97731.14;3611494;81;43353;-16
2021/01/07 22:28:24;;;;;;;16.53;9.57;;;;;;;-0.16;100.00;97729.20;3664358;81;43309;-16
2021/01/07 22:33:29;;;;;;;15.23;8.60;;;;;;;-0.15;100.00;97725.60;3669268;81;43681;-17
2021/01/07 22:38:35;;;;;;;16.80;8.70;;;;;;;-0.22;100.00;97729.17;3668959;81;44111;-17
2021/01/07 22:43:41;;;;;;;16.67;8.40;;;;;;;-0.13;100.00;97729.48;3669083;81;44050;-16
2021/01/07 22:48:48;;;;;;;16.40;8.50;;;;;;;-0.11;100.00;97729.73;3668745;81;43314;-17
2021/01/07 22:53:54;;;;;;;15.70;8.50;;;;;;;-0.16;100.00;97727.88;3669073;81;44096;-17
2021/01/07 22:59:01;;;;;;;16.03;8.80;;;;;;;-0.09;100.00;97726.50;3667410;81;44695;-16
2021/01/07 23:04:08;;;;;;;17.27;9.37;;;;;;;-0.11;100.00;97723.11;3669293;81;44031;-17
2021/01/07 23:09:14;;;;;;;18.73;9.47;;;;;;;-0.06;100.00;97714.34;3669155;79;43657;-16
2021/01/07 23:14:20;;;;;;;19.23;9.73;;;;;;;-0.04;100.00;97717.72;3666430;81;44008;-16
2021/01/07 23:19:27;;;;;;;18.70;9.53;;;;;;;-0.11;100.00;97717.81;3624231;79;44114;-16
2021/01/07 23:24:33;;;;;;;16.77;9.10;;;;;;;-0.06;100.00;97715.66;3654233;81;43722;-17
2021/01/07 23:29:39;;;;;;;21.53;10.43;;;;;;;-0.11;100.00;97712.52;3706294;78;44059;-17
2021/01/07 23:34:46;;;;;;;19.17;10.27;;;;;;;-0.18;100.00;97710.80;3715350;80;44045;-17
2021/01/07 23:39:52;;;;;;;18.47;9.80;;;;;;;-0.10;100.00;97700.98;3716149;78;44650;-17